createdAt,value
2023-04-30T00:00:48.013Z,48.82
2023-04-30T00:01:48.013Z,48.82
2023-04-30T00:02:48.081Z,48.34
2023-04-30T00:03:48.041Z,48.82
2023-04-30T00:04:47.928Z,48.66
2023-04-30T00:05:47.952Z,48.66
2023-04-30T00:06:47.971Z,48.34
2023-04-30T00:07:47.914Z,48.50
2023-04-30T00:08:47.918Z,48.34
2023-04-30T00:09:47.912Z,48.66
2023-04-30T00:10:47.920Z,48.66
2023-04-30T00:11:47.893Z,48.82
2023-04-30T00:12:47.895Z,48.82
2023-04-30T00:13:47.880Z,48.98
2023-04-30T00:14:47.870Z,48.98
2023-04-30T00:15:47.884Z,48.34
2023-04-30T00:16:47.947Z,48.34
2023-04-30T00:17:47.866Z,48.82
2023-04-30T00:18:47.850Z,48.82
2023-04-30T00:19:47.839Z,48.98
2023-04-30T00:20:47.853Z,48.66
2023-04-30T00:21:47.831Z,48.98
2023-04-30T00:22:47.814Z,48.50
2023-04-30T00:23:47.819Z,48.66
2023-04-30T00:24:47.803Z,48.82
2023-04-30T00:25:47.824Z,48.98
2023-04-30T00:26:47.792Z,48.98
2023-04-30T00:27:47.796Z,48.66
2023-04-30T00:28:47.785Z,48.34
2023-04-30T00:29:47.761Z,48.66
2023-04-30T00:30:47.796Z,48.82
2023-04-30T00:31:47.822Z,48.98
2023-04-30T00:32:47.796Z,48.82
2023-04-30T00:33:47.750Z,48.66
2023-04-30T00:34:47.748Z,48.98
2023-04-30T00:35:47.775Z,48.98
2023-04-30T00:36:47.728Z,48.66
2023-04-30T00:37:47.723Z,48.98
2023-04-30T00:38:47.722Z,49.15
2023-04-30T00:39:47.709Z,49.15
2023-04-30T00:40:47.740Z,48.50
2023-04-30T00:41:47.704Z,49.15
2023-04-30T00:42:47.693Z,48.98
2023-04-30T00:43:47.700Z,48.66
2023-04-30T00:44:47.680Z,48.66
2023-04-30T00:45:47.713Z,48.34
2023-04-30T00:46:47.669Z,48.66
2023-04-30T00:47:47.699Z,48.98
2023-04-30T00:48:47.708Z,48.50
2023-04-30T00:49:47.635Z,48.34
2023-04-30T00:50:47.656Z,48.66
2023-04-30T00:51:47.690Z,48.34
2023-04-30T00:52:47.626Z,48.50
2023-04-30T00:53:47.610Z,48.50
2023-04-30T00:54:47.601Z,48.66
2023-04-30T00:55:47.621Z,48.82
2023-04-30T00:56:47.585Z,48.66
2023-04-30T00:57:47.576Z,48.82
2023-04-30T00:58:47.577Z,48.34
2023-04-30T00:59:47.609Z,48.34
2023-04-30T01:00:47.578Z,48.82
2023-04-30T01:01:47.708Z,48.66
2023-04-30T01:02:47.620Z,48.50
2023-04-30T01:03:47.602Z,48.66
2023-04-30T01:04:47.537Z,48.82
2023-04-30T01:05:47.567Z,48.66
2023-04-30T01:06:47.632Z,48.82
2023-04-30T01:07:47.516Z,48.66
2023-04-30T01:08:47.512Z,48.50
2023-04-30T01:09:47.552Z,48.66
2023-04-30T01:10:47.530Z,48.82
2023-04-30T01:11:47.484Z,48.82
2023-04-30T01:12:47.522Z,48.66
2023-04-30T01:13:47.475Z,48.82
2023-04-30T01:14:47.468Z,48.66
2023-04-30T01:15:47.550Z,48.82
2023-04-30T01:16:47.544Z,48.50
2023-04-30T01:17:47.513Z,48.82
2023-04-30T01:18:47.790Z,48.82
2023-04-30T01:19:47.554Z,48.66
2023-04-30T01:20:47.508Z,48.50
2023-04-30T01:21:47.442Z,48.82
2023-04-30T01:22:47.515Z,48.50
2023-04-30T01:23:47.479Z,48.98
2023-04-30T01:24:47.514Z,48.66
2023-04-30T01:25:47.444Z,48.18
2023-04-30T01:26:47.468Z,48.82
2023-04-30T01:27:47.485Z,48.66
2023-04-30T01:28:47.406Z,48.66
2023-04-30T01:29:47.534Z,48.66
2023-04-30T01:30:47.618Z,48.02
2023-04-30T01:31:47.650Z,48.82
2023-04-30T01:32:47.482Z,48.50
2023-04-30T01:33:47.379Z,48.82
2023-04-30T01:34:47.411Z,48.82
2023-04-30T01:35:47.468Z,48.50
2023-04-30T01:36:47.488Z,49.15
2023-04-30T01:37:47.537Z,49.15
2023-04-30T01:38:47.432Z,48.82
2023-04-30T01:39:47.445Z,48.82
2023-04-30T01:40:47.541Z,48.66
2023-04-30T01:41:47.534Z,48.82
2023-04-30T01:42:47.366Z,48.50
2023-04-30T01:43:47.402Z,48.66
2023-04-30T01:44:47.460Z,48.66
2023-04-30T01:45:47.474Z,48.50
2023-04-30T01:46:48.273Z,48.50
2023-04-30T01:47:47.501Z,48.82
2023-04-30T01:48:47.453Z,48.50
2023-04-30T01:49:47.398Z,48.82
2023-04-30T01:50:47.344Z,48.66
2023-04-30T01:51:47.414Z,48.82
2023-04-30T01:52:48.208Z,49.15
2023-04-30T01:53:47.318Z,48.98
2023-04-30T01:54:47.555Z,48.98
2023-04-30T01:55:47.378Z,48.50
2023-04-30T01:56:47.491Z,48.50
2023-04-30T01:57:47.163Z,48.50
2023-04-30T01:58:47.171Z,48.50
2023-04-30T01:59:47.161Z,48.98
2023-04-30T02:00:47.137Z,48.82
2023-04-30T02:01:47.205Z,49.15
2023-04-30T02:02:47.211Z,49.15
2023-04-30T02:03:47.277Z,49.15
2023-04-30T02:04:47.117Z,49.15
2023-04-30T02:05:47.112Z,48.98
2023-04-30T02:06:47.182Z,48.82
2023-04-30T02:07:47.097Z,48.98
2023-04-30T02:08:48.095Z,48.98
2023-04-30T02:09:47.093Z,48.98
2023-04-30T02:10:47.079Z,49.15
2023-04-30T02:11:47.083Z,48.82
2023-04-30T02:12:47.055Z,48.82
2023-04-30T02:13:47.063Z,48.98
2023-04-30T02:14:47.061Z,48.82
2023-04-30T02:15:47.044Z,48.66
2023-04-30T02:16:47.213Z,49.47
2023-04-30T02:17:47.046Z,49.31
2023-04-30T02:18:47.010Z,49.15
2023-04-30T02:19:47.012Z,49.31
2023-04-30T02:20:47.007Z,49.31
2023-04-30T02:21:47.021Z,49.31
2023-04-30T02:22:46.990Z,49.31
2023-04-30T02:23:46.988Z,49.15
2023-04-30T02:24:46.994Z,48.66
2023-04-30T02:25:46.980Z,49.31
2023-04-30T02:26:46.984Z,48.98
2023-04-30T02:27:46.957Z,49.31
2023-04-30T02:28:46.948Z,48.98
2023-04-30T02:29:46.948Z,48.50
2023-04-30T02:30:46.929Z,49.31
2023-04-30T02:31:47.974Z,48.98
2023-04-30T02:32:47.008Z,49.31
2023-04-30T02:33:46.918Z,49.15
2023-04-30T02:34:46.911Z,49.63
2023-04-30T02:35:46.921Z,49.47
2023-04-30T02:36:46.921Z,49.15
2023-04-30T02:37:46.896Z,48.98
2023-04-30T02:38:46.910Z,49.31
2023-04-30T02:39:46.891Z,48.98
2023-04-30T02:40:46.883Z,49.31
2023-04-30T02:41:46.894Z,49.79
2023-04-30T02:42:46.869Z,49.79
2023-04-30T02:43:46.853Z,49.79
2023-04-30T02:44:46.848Z,49.79
2023-04-30T02:45:47.084Z,49.63
2023-04-30T02:46:47.020Z,49.47
2023-04-30T02:47:46.869Z,49.95
2023-04-30T02:48:46.825Z,49.79
2023-04-30T02:49:46.829Z,49.95
2023-04-30T02:50:46.820Z,49.79
2023-04-30T02:51:46.828Z,49.79
2023-04-30T02:52:46.817Z,49.79
2023-04-30T02:53:46.805Z,49.63
2023-04-30T02:54:46.970Z,49.79
2023-04-30T02:55:46.773Z,49.47
2023-04-30T02:56:46.788Z,49.79
2023-04-30T02:57:46.797Z,49.95
2023-04-30T02:58:46.759Z,49.79
2023-04-30T02:59:46.747Z,49.95
2023-04-30T03:00:46.757Z,49.79
2023-04-30T03:01:47.099Z,49.63
2023-04-30T03:02:47.012Z,50.43
2023-04-30T03:03:46.877Z,50.27
2023-04-30T03:04:46.890Z,50.27
2023-04-30T03:05:46.826Z,49.95
2023-04-30T03:06:46.822Z,50.27
2023-04-30T03:07:46.799Z,50.27
2023-04-30T03:08:46.761Z,50.60
2023-04-30T03:09:46.764Z,50.27
2023-04-30T03:10:46.765Z,49.63
2023-04-30T03:11:46.730Z,50.27
2023-04-30T03:12:46.748Z,50.11
2023-04-30T03:13:46.697Z,50.11
2023-04-30T03:14:46.662Z,50.11
2023-04-30T03:15:46.680Z,50.27
2023-04-30T03:16:46.858Z,50.76
2023-04-30T03:17:46.769Z,50.60
2023-04-30T03:18:46.643Z,50.76
2023-04-30T03:19:46.772Z,50.60
2023-04-30T03:20:46.682Z,50.76
2023-04-30T03:21:46.613Z,50.60
2023-04-30T03:22:46.769Z,50.76
2023-04-30T03:23:46.690Z,50.43
2023-04-30T03:24:46.748Z,49.79
2023-04-30T03:25:46.649Z,49.95
2023-04-30T03:26:46.656Z,50.43
2023-04-30T03:27:46.720Z,50.11
2023-04-30T03:28:46.651Z,50.27
2023-04-30T03:29:46.768Z,50.27
2023-04-30T03:30:46.609Z,50.27
2023-04-30T03:31:46.629Z,50.27
2023-04-30T03:32:46.645Z,50.11
2023-04-30T03:33:46.751Z,49.95
2023-04-30T03:34:46.663Z,49.63
2023-04-30T03:35:46.526Z,50.27
2023-04-30T03:36:46.556Z,49.95
2023-04-30T03:37:46.603Z,50.43
2023-04-30T03:38:46.638Z,50.43
2023-04-30T03:39:46.692Z,50.27
2023-04-30T03:40:46.502Z,50.11
2023-04-30T03:41:46.492Z,49.95
2023-04-30T03:42:48.197Z,50.11
2023-04-30T03:43:46.603Z,50.27
2023-04-30T03:44:46.582Z,49.79
2023-04-30T03:45:46.646Z,50.11
2023-04-30T03:46:46.569Z,49.79
2023-04-30T03:47:46.681Z,50.43
2023-04-30T03:48:46.598Z,49.79
2023-04-30T03:49:46.585Z,49.95
2023-04-30T03:50:46.623Z,50.11
2023-04-30T03:51:46.528Z,50.27
2023-04-30T03:52:46.472Z,50.27
2023-04-30T03:53:46.502Z,49.63
2023-04-30T03:54:46.460Z,49.95
2023-04-30T03:55:46.598Z,50.27
2023-04-30T03:56:46.714Z,49.79
2023-04-30T03:57:46.480Z,50.11
2023-04-30T03:58:46.465Z,49.47
2023-04-30T03:59:46.566Z,50.11
2023-04-30T04:00:46.408Z,50.11
2023-04-30T04:01:47.522Z,49.95
2023-04-30T04:02:46.603Z,49.79
2023-04-30T04:03:46.421Z,50.11
2023-04-30T04:04:46.409Z,49.95
2023-04-30T04:05:46.490Z,50.27
2023-04-30T04:06:46.453Z,50.11
2023-04-30T04:07:46.459Z,49.31
2023-04-30T04:08:46.386Z,49.63
2023-04-30T04:09:46.505Z,50.11
2023-04-30T04:10:46.416Z,50.11
2023-04-30T04:11:46.414Z,49.31
2023-04-30T04:12:47.257Z,49.79
2023-04-30T04:13:46.483Z,49.47
2023-04-30T04:14:46.391Z,49.95
2023-04-30T04:15:46.467Z,49.79
2023-04-30T04:16:46.369Z,49.47
2023-04-30T04:17:46.416Z,49.95
2023-04-30T04:18:46.524Z,49.63
2023-04-30T04:19:46.501Z,49.47
2023-04-30T04:20:46.495Z,49.31
2023-04-30T04:21:46.382Z,49.79
2023-04-30T04:22:46.353Z,49.63
2023-04-30T04:23:46.458Z,49.15
2023-04-30T04:24:46.465Z,49.63
2023-04-30T04:25:47.290Z,49.47
2023-04-30T04:26:48.117Z,49.15
2023-04-30T04:27:47.244Z,49.47
2023-04-30T04:28:46.359Z,49.31
2023-04-30T04:29:47.668Z,49.15
2023-04-30T04:30:46.442Z,49.31
2023-04-30T04:31:46.436Z,49.63
2023-04-30T04:32:46.377Z,49.63
2023-04-30T04:33:46.425Z,49.31
2023-04-30T04:34:46.336Z,49.31
2023-04-30T04:35:46.375Z,49.31
2023-04-30T04:36:46.434Z,49.79
2023-04-30T04:37:46.350Z,49.63
2023-04-30T04:38:46.357Z,49.79
2023-04-30T04:39:46.444Z,50.11
2023-04-30T04:40:46.713Z,49.79
2023-04-30T04:41:46.362Z,49.79
2023-04-30T04:42:46.282Z,49.15
2023-04-30T04:43:46.706Z,49.95
2023-04-30T04:44:46.360Z,49.63
2023-04-30T04:45:46.292Z,49.63
2023-04-30T04:46:46.433Z,49.47
2023-04-30T04:47:46.113Z,49.63
2023-04-30T04:48:46.255Z,49.95
2023-04-30T04:49:46.340Z,49.47
2023-04-30T04:50:46.357Z,49.47
2023-04-30T04:51:46.093Z,49.31
2023-04-30T04:52:46.077Z,49.15
2023-04-30T04:53:46.474Z,49.63
2023-04-30T04:54:46.102Z,50.11
2023-04-30T04:55:46.060Z,49.31
2023-04-30T04:56:46.026Z,49.31
2023-04-30T04:57:46.117Z,49.63
2023-04-30T04:58:46.073Z,49.31
2023-04-30T04:59:46.031Z,49.15
2023-04-30T05:00:46.025Z,49.15
2023-04-30T05:01:46.061Z,49.15
2023-04-30T05:02:46.102Z,49.63
2023-04-30T05:03:46.199Z,49.31
2023-04-30T05:04:46.004Z,49.47
2023-04-30T05:05:45.989Z,49.31
2023-04-30T05:06:46.051Z,49.47
2023-04-30T05:07:45.983Z,49.47
2023-04-30T05:08:46.013Z,49.63
2023-04-30T05:09:46.003Z,49.63
2023-04-30T05:10:45.959Z,49.15
2023-04-30T05:11:45.944Z,49.47
2023-04-30T05:12:46.922Z,49.63
2023-04-30T05:13:45.943Z,49.15
2023-04-30T05:14:45.901Z,49.15
2023-04-30T05:15:45.975Z,48.98
2023-04-30T05:16:45.937Z,49.15
2023-04-30T05:17:45.931Z,48.98
2023-04-30T05:18:45.900Z,48.98
2023-04-30T05:19:45.869Z,48.66
2023-04-30T05:20:45.872Z,48.98
2023-04-30T05:21:45.974Z,48.34
2023-04-30T05:22:45.868Z,48.66
2023-04-30T05:23:45.868Z,48.50
2023-04-30T05:24:45.840Z,48.66
2023-04-30T05:25:45.838Z,48.98
2023-04-30T05:26:45.824Z,48.50
2023-04-30T05:27:45.812Z,48.66
2023-04-30T05:28:45.867Z,48.50
2023-04-30T05:29:45.805Z,48.82
2023-04-30T05:30:45.815Z,48.66
2023-04-30T05:31:45.856Z,48.50
2023-04-30T05:32:45.795Z,48.98
2023-04-30T05:33:45.796Z,48.02
2023-04-30T05:34:45.800Z,48.66
2023-04-30T05:35:45.965Z,48.66
2023-04-30T05:36:45.877Z,48.82
2023-04-30T05:37:45.866Z,48.82
2023-04-30T05:38:45.843Z,48.34
2023-04-30T05:39:45.792Z,48.82
2023-04-30T05:40:45.725Z,48.66
2023-04-30T05:41:46.758Z,48.82
2023-04-30T05:42:45.757Z,48.50
2023-04-30T05:43:46.088Z,48.50
2023-04-30T05:44:45.790Z,47.37
2023-04-30T05:45:46.494Z,48.50
2023-04-30T05:46:45.915Z,48.02
2023-04-30T05:47:45.765Z,48.34
2023-04-30T05:48:45.674Z,48.34
2023-04-30T05:49:46.712Z,48.18
2023-04-30T05:50:45.646Z,48.82
2023-04-30T05:51:45.731Z,48.82
2023-04-30T05:52:45.640Z,48.82
2023-04-30T05:53:45.670Z,48.98
2023-04-30T05:54:46.840Z,48.82
2023-04-30T05:55:45.625Z,49.47
2023-04-30T05:56:45.607Z,49.47
2023-04-30T05:57:45.614Z,50.11
2023-04-30T05:58:45.619Z,49.79
2023-04-30T05:59:45.594Z,49.63
2023-04-30T06:00:45.614Z,48.82
2023-04-30T06:01:45.599Z,49.47
2023-04-30T06:02:45.662Z,49.47
2023-04-30T06:03:45.793Z,48.98
2023-04-30T06:04:45.579Z,48.50
2023-04-30T06:05:45.645Z,48.50
2023-04-30T06:06:45.771Z,48.82
2023-04-30T06:07:45.534Z,47.86
2023-04-30T06:08:45.742Z,48.34
2023-04-30T06:09:45.527Z,48.18
2023-04-30T06:10:45.524Z,48.02
2023-04-30T06:11:45.518Z,47.70
2023-04-30T06:12:45.520Z,47.86
2023-04-30T06:13:45.568Z,48.02
2023-04-30T06:14:45.514Z,48.18
2023-04-30T06:15:45.483Z,48.18
2023-04-30T06:16:45.585Z,48.66
2023-04-30T06:17:45.498Z,47.86
2023-04-30T06:18:45.510Z,48.18
2023-04-30T06:19:45.570Z,48.18
2023-04-30T06:20:45.557Z,47.37
2023-04-30T06:21:46.307Z,47.86
2023-04-30T06:22:45.443Z,46.73
2023-04-30T06:23:45.445Z,46.73
2023-04-30T06:24:45.645Z,47.21
2023-04-30T06:25:45.477Z,46.73
2023-04-30T06:26:45.599Z,46.41
2023-04-30T06:27:45.401Z,46.73
2023-04-30T06:28:45.384Z,46.73
2023-04-30T06:29:45.401Z,46.89
2023-04-30T06:30:45.382Z,47.05
2023-04-30T06:31:45.433Z,46.89
2023-04-30T06:32:45.402Z,46.57
2023-04-30T06:33:45.538Z,46.08
2023-04-30T06:34:45.378Z,46.57
2023-04-30T06:35:45.343Z,46.57
2023-04-30T06:36:45.339Z,46.41
2023-04-30T06:37:45.343Z,46.57
2023-04-30T06:38:45.327Z,46.25
2023-04-30T06:39:45.457Z,46.41
2023-04-30T06:40:45.313Z,46.73
2023-04-30T06:41:45.297Z,46.41
2023-04-30T06:42:46.951Z,46.08
2023-04-30T06:43:45.333Z,46.08
2023-04-30T06:44:45.304Z,45.92
2023-04-30T06:45:45.299Z,46.73
2023-04-30T06:46:45.334Z,46.08
2023-04-30T06:47:45.332Z,46.08
2023-04-30T06:48:45.289Z,46.73
2023-04-30T06:49:45.275Z,46.73
2023-04-30T06:50:45.305Z,45.92
2023-04-30T06:51:45.239Z,46.73
2023-04-30T06:52:45.248Z,46.73
2023-04-30T06:53:45.258Z,46.57
2023-04-30T06:54:45.237Z,46.57
2023-04-30T06:55:45.227Z,46.41
2023-04-30T06:56:45.267Z,46.73
2023-04-30T06:57:45.338Z,47.05
2023-04-30T06:58:45.199Z,46.41
2023-04-30T06:59:45.199Z,45.92
2023-04-30T07:00:45.165Z,45.92
2023-04-30T07:01:45.173Z,46.08
2023-04-30T07:02:45.353Z,46.25
2023-04-30T07:03:45.265Z,46.08
2023-04-30T07:04:45.145Z,47.05
2023-04-30T07:05:45.139Z,45.76
2023-04-30T07:06:45.174Z,46.08
2023-04-30T07:07:45.128Z,46.25
2023-04-30T07:08:45.149Z,45.60
2023-04-30T07:09:45.118Z,45.92
2023-04-30T07:10:45.098Z,46.25
2023-04-30T07:11:45.246Z,45.12
2023-04-30T07:12:45.093Z,45.44
2023-04-30T07:13:45.104Z,46.25
2023-04-30T07:14:45.073Z,45.76
2023-04-30T07:15:45.076Z,46.08
2023-04-30T07:16:45.065Z,46.25
2023-04-30T07:17:45.077Z,45.92
2023-04-30T07:18:45.058Z,45.92
2023-04-30T07:19:45.045Z,46.25
2023-04-30T07:20:45.039Z,46.41
2023-04-30T07:21:45.051Z,47.21
2023-04-30T07:22:45.011Z,46.57
2023-04-30T07:23:45.036Z,47.05
2023-04-30T07:24:45.009Z,46.89
2023-04-30T07:25:45.012Z,46.89
2023-04-30T07:26:44.992Z,46.89
2023-04-30T07:27:44.987Z,46.57
2023-04-30T07:28:45.003Z,47.21
2023-04-30T07:29:44.983Z,46.25
2023-04-30T07:30:45.008Z,46.41
2023-04-30T07:31:45.011Z,46.41
2023-04-30T07:32:44.952Z,46.25
2023-04-30T07:33:44.970Z,46.41
2023-04-30T07:34:44.938Z,45.92
2023-04-30T07:35:45.921Z,46.25
2023-04-30T07:36:44.932Z,46.73
2023-04-30T07:37:44.948Z,45.92
2023-04-30T07:38:44.944Z,45.92
2023-04-30T07:39:44.903Z,44.79
2023-04-30T07:40:44.892Z,45.44
2023-04-30T07:41:44.886Z,45.28
2023-04-30T07:42:44.879Z,45.44
2023-04-30T07:43:45.161Z,45.92
2023-04-30T07:44:44.867Z,46.08
2023-04-30T07:45:44.895Z,45.44
2023-04-30T07:46:44.871Z,45.92
2023-04-30T07:47:44.885Z,45.92
2023-04-30T07:48:44.876Z,45.76
2023-04-30T07:49:44.822Z,45.76
2023-04-30T07:50:44.828Z,46.41
2023-04-30T07:51:44.821Z,45.92
2023-04-30T07:52:44.824Z,46.08
2023-04-30T07:53:44.823Z,46.08
2023-04-30T07:54:44.798Z,45.60
2023-04-30T07:55:44.795Z,45.12
2023-04-30T07:56:44.787Z,45.76
2023-04-30T07:57:44.770Z,46.57
2023-04-30T07:58:44.809Z,45.92
2023-04-30T07:59:44.826Z,46.08
2023-04-30T08:00:44.744Z,45.92
2023-04-30T08:01:44.812Z,45.92
2023-04-30T08:02:44.923Z,45.76
2023-04-30T08:03:44.894Z,45.28
2023-04-30T08:04:44.726Z,45.44
2023-04-30T08:05:44.722Z,45.44
2023-04-30T08:06:44.823Z,46.08
2023-04-30T08:07:44.721Z,46.57
2023-04-30T08:08:44.724Z,46.08
2023-04-30T08:09:44.697Z,46.41
2023-04-30T08:10:44.685Z,45.60
2023-04-30T08:11:44.679Z,45.28
2023-04-30T08:12:44.668Z,45.28
2023-04-30T08:13:44.682Z,45.60
2023-04-30T08:14:45.656Z,46.73
2023-04-30T08:15:44.677Z,45.28
2023-04-30T08:16:44.697Z,45.28
2023-04-30T08:17:44.714Z,46.41
2023-04-30T08:18:44.661Z,46.57
2023-04-30T08:19:44.683Z,45.12
2023-04-30T08:20:44.599Z,45.44
2023-04-30T08:21:44.618Z,45.12
2023-04-30T08:22:44.616Z,44.79
2023-04-30T08:23:44.622Z,45.12
2023-04-30T08:24:44.590Z,45.60
2023-04-30T08:25:44.588Z,44.63
2023-04-30T08:26:44.590Z,46.57
2023-04-30T08:27:44.604Z,44.96
2023-04-30T08:28:44.559Z,44.15
2023-04-30T08:29:44.560Z,44.96
2023-04-30T08:30:44.547Z,44.47
2023-04-30T08:31:44.578Z,44.79
2023-04-30T08:32:44.605Z,45.92
2023-04-30T08:33:44.530Z,47.05
2023-04-30T08:34:44.522Z,46.73
2023-04-30T08:35:44.514Z,45.44
2023-04-30T08:36:44.511Z,45.44
2023-04-30T08:37:44.529Z,45.76
2023-04-30T08:38:44.499Z,46.73
2023-04-30T08:39:44.495Z,46.89
2023-04-30T08:40:51.504Z,46.25
2023-04-30T08:41:46.485Z,47.05
2023-04-30T08:42:44.490Z,46.41
2023-04-30T08:43:44.465Z,45.76
2023-04-30T08:44:44.458Z,45.44
2023-04-30T08:45:44.718Z,46.73
2023-04-30T08:46:44.468Z,45.60
2023-04-30T08:47:45.256Z,46.25
2023-04-30T08:48:44.453Z,45.76
2023-04-30T08:49:44.435Z,45.76
2023-04-30T08:50:44.413Z,45.60
2023-04-30T08:51:44.394Z,46.25
2023-04-30T08:52:44.386Z,45.76
2023-04-30T08:53:44.416Z,45.12
2023-04-30T08:54:44.381Z,46.41
2023-04-30T08:55:44.368Z,46.25
2023-04-30T08:56:44.386Z,46.25
2023-04-30T08:57:44.362Z,45.92
2023-04-30T08:58:45.399Z,46.57
2023-04-30T08:59:44.391Z,46.41
2023-04-30T09:00:44.341Z,46.89
2023-04-30T09:01:44.387Z,45.44
2023-04-30T09:02:44.399Z,46.08
2023-04-30T09:03:44.495Z,45.60
2023-04-30T09:04:44.302Z,45.44
2023-04-30T09:05:44.303Z,44.96
2023-04-30T09:06:44.404Z,45.92
2023-04-30T09:07:55.592Z,46.08
2023-04-30T09:08:45.276Z,46.08
2023-04-30T09:09:44.277Z,45.76
2023-04-30T09:10:44.269Z,45.60
2023-04-30T09:11:44.261Z,45.60
2023-04-30T09:12:44.274Z,46.57
2023-04-30T09:13:44.242Z,44.96
2023-04-30T09:14:44.248Z,45.92
2023-04-30T09:15:44.371Z,46.57
2023-04-30T09:16:44.231Z,46.41
2023-04-30T09:17:45.515Z,46.57
2023-04-30T09:18:44.208Z,45.76
2023-04-30T09:19:44.311Z,45.60
2023-04-30T09:20:44.192Z,46.73
2023-04-30T09:21:44.192Z,45.28
2023-04-30T09:22:44.196Z,46.57
2023-04-30T09:23:44.180Z,46.73
2023-04-30T09:24:44.166Z,45.76
2023-04-30T09:25:44.163Z,45.28
2023-04-30T09:26:44.164Z,45.76
2023-04-30T09:27:44.213Z,46.41
2023-04-30T09:28:44.134Z,45.76
2023-04-30T09:29:44.358Z,46.57
2023-04-30T09:30:44.121Z,46.57
2023-04-30T09:31:44.179Z,45.28
2023-04-30T09:32:44.159Z,45.92
2023-04-30T09:33:44.095Z,45.92
2023-04-30T09:34:44.142Z,46.25
2023-04-30T09:35:44.094Z,45.60
2023-04-30T09:36:44.078Z,45.60
2023-04-30T09:37:44.107Z,46.08
2023-04-30T09:38:44.058Z,45.92
2023-04-30T09:39:44.060Z,45.60
2023-04-30T09:40:44.062Z,46.25
2023-04-30T09:41:44.040Z,44.79
2023-04-30T09:42:44.116Z,44.79
2023-04-30T09:43:44.032Z,45.92
2023-04-30T09:44:44.033Z,45.28
2023-04-30T09:45:44.028Z,45.76
2023-04-30T09:46:44.082Z,45.76
2023-04-30T09:47:44.081Z,45.44
2023-04-30T09:48:44.005Z,45.76
2023-04-30T09:49:44.003Z,45.28
2023-04-30T09:50:43.980Z,44.96
2023-04-30T09:51:44.010Z,44.31
2023-04-30T09:52:44.043Z,44.96
2023-04-30T09:53:43.976Z,45.60
2023-04-30T09:54:43.963Z,45.60
2023-04-30T09:55:43.955Z,46.25
2023-04-30T09:56:43.951Z,45.28
2023-04-30T09:57:43.977Z,45.76
2023-04-30T09:58:43.939Z,44.96
2023-04-30T09:59:43.937Z,45.44
2023-04-30T10:00:43.962Z,44.79
2023-04-30T10:01:43.922Z,44.63
2023-04-30T10:02:43.951Z,44.63
2023-04-30T10:03:44.114Z,44.96
2023-04-30T10:04:43.879Z,43.99
2023-04-30T10:05:43.890Z,44.63
2023-04-30T10:06:44.015Z,44.15
2023-04-30T10:07:43.897Z,43.83
2023-04-30T10:08:43.933Z,44.96
2023-04-30T10:09:43.889Z,44.63
2023-04-30T10:10:43.872Z,44.79
2023-04-30T10:11:43.855Z,43.67
2023-04-30T10:12:43.852Z,43.99
2023-04-30T10:13:43.870Z,43.83
2023-04-30T10:14:43.860Z,44.15
2023-04-30T10:15:43.813Z,44.31
2023-04-30T10:16:43.878Z,44.63
2023-04-30T10:17:43.840Z,42.70
2023-04-30T10:18:44.206Z,43.34
2023-04-30T10:19:45.548Z,43.18
2023-04-30T10:20:43.787Z,42.86
2023-04-30T10:21:43.779Z,41.41
2023-04-30T10:22:43.812Z,42.38
2023-04-30T10:23:43.922Z,42.06
2023-04-30T10:24:43.778Z,42.38
2023-04-30T10:25:43.759Z,42.70
2023-04-30T10:26:43.744Z,43.67
2023-04-30T10:27:43.793Z,43.18
2023-04-30T10:28:43.749Z,42.54
2023-04-30T10:29:43.729Z,43.02
2023-04-30T10:30:43.723Z,43.18
2023-04-30T10:31:43.720Z,44.15
2023-04-30T10:32:43.730Z,43.02
2023-04-30T10:33:43.703Z,43.18
2023-04-30T10:34:43.718Z,43.51
2023-04-30T10:35:43.742Z,42.86
2023-04-30T10:36:43.725Z,42.54
2023-04-30T10:37:43.665Z,42.06
2023-04-30T10:38:43.672Z,40.77
2023-04-30T10:39:43.685Z,42.06
2023-04-30T10:40:43.654Z,43.02
2023-04-30T10:41:43.652Z,42.38
2023-04-30T10:42:43.621Z,42.54
2023-04-30T10:43:43.680Z,42.38
2023-04-30T10:44:43.637Z,42.70
2023-04-30T10:45:43.695Z,42.38
2023-04-30T10:46:43.653Z,42.38
2023-04-30T10:47:43.657Z,41.89
2023-04-30T10:48:43.589Z,43.02
2023-04-30T10:49:43.632Z,41.57
2023-04-30T10:50:45.786Z,42.86
2023-04-30T10:51:44.571Z,42.06
2023-04-30T10:52:43.577Z,42.22
2023-04-30T10:53:43.599Z,42.54
2023-04-30T10:54:43.566Z,41.89
2023-04-30T10:55:43.558Z,40.93
2023-04-30T10:56:43.537Z,40.77
2023-04-30T10:57:43.570Z,42.54
2023-04-30T10:58:43.577Z,42.06
2023-04-30T10:59:43.540Z,42.22
2023-04-30T11:00:44.889Z,42.22
2023-04-30T11:01:43.571Z,42.38
2023-04-30T11:02:44.590Z,42.22
2023-04-30T11:03:43.520Z,41.89
2023-04-30T11:04:43.784Z,42.54
2023-04-30T11:05:43.641Z,42.38
2023-04-30T11:06:44.997Z,43.02
2023-04-30T11:07:44.468Z,43.02
2023-04-30T11:08:43.529Z,42.54
2023-04-30T11:09:43.498Z,43.02
2023-04-30T11:10:44.193Z,42.70
2023-04-30T11:11:43.438Z,43.18
2023-04-30T11:12:43.434Z,42.06
2023-04-30T11:13:43.496Z,42.54
2023-04-30T11:14:43.447Z,42.86
2023-04-30T11:15:43.447Z,42.54
2023-04-30T11:16:43.428Z,42.22
2023-04-30T11:17:43.411Z,42.06
2023-04-30T11:18:43.424Z,42.86
2023-04-30T11:19:44.482Z,41.73
2023-04-30T11:20:43.401Z,43.34
2023-04-30T11:21:43.369Z,42.70
2023-04-30T11:22:43.393Z,41.73
2023-04-30T11:23:43.534Z,42.38
2023-04-30T11:24:43.409Z,42.86
2023-04-30T11:25:43.376Z,43.67
2023-04-30T11:26:43.344Z,43.51
2023-04-30T11:27:43.327Z,43.02
2023-04-30T11:28:43.432Z,43.02
2023-04-30T11:29:43.315Z,43.18
2023-04-30T11:30:44.343Z,42.06
2023-04-30T11:31:43.349Z,42.70
2023-04-30T11:32:43.353Z,42.38
2023-04-30T11:33:43.348Z,42.54
2023-04-30T11:34:43.297Z,42.22
2023-04-30T11:35:43.288Z,42.38
2023-04-30T11:36:44.607Z,42.06
2023-04-30T11:37:43.262Z,41.25
2023-04-30T11:38:43.297Z,41.89
2023-04-30T11:39:43.263Z,41.25
2023-04-30T11:40:43.273Z,43.02
2023-04-30T11:41:43.269Z,41.73
2023-04-30T11:42:45.466Z,41.57
2023-04-30T11:43:44.264Z,42.70
2023-04-30T11:44:43.224Z,41.57
2023-04-30T11:45:43.209Z,41.25
2023-04-30T11:46:43.213Z,42.22
2023-04-30T11:47:43.248Z,42.38
2023-04-30T11:48:43.219Z,42.22
2023-04-30T11:49:43.195Z,40.93
2023-04-30T11:50:44.390Z,42.06
2023-04-30T11:51:43.172Z,42.70
2023-04-30T11:52:43.193Z,42.22
2023-04-30T11:53:43.165Z,42.70
2023-04-30T11:54:43.140Z,43.51
2023-04-30T11:55:43.162Z,42.38
2023-04-30T11:56:43.149Z,42.22
2023-04-30T11:57:43.136Z,41.57
2023-04-30T11:58:43.133Z,41.89
2023-04-30T11:59:43.118Z,41.89
2023-04-30T12:00:43.142Z,41.25
2023-04-30T12:01:43.209Z,42.22
2023-04-30T12:02:43.537Z,41.73
2023-04-30T12:03:43.186Z,42.22
2023-04-30T12:04:43.136Z,41.57
2023-04-30T12:05:43.069Z,41.73
2023-04-30T12:06:43.214Z,42.38
2023-04-30T12:07:43.094Z,40.44
2023-04-30T12:08:43.096Z,40.93
2023-04-30T12:09:43.037Z,41.73
2023-04-30T12:10:43.032Z,42.54
2023-04-30T12:11:43.027Z,42.22
2023-04-30T12:12:43.038Z,40.93
2023-04-30T12:13:43.198Z,41.41
2023-04-30T12:14:43.039Z,41.09
2023-04-30T12:15:43.013Z,40.28
2023-04-30T12:16:43.073Z,40.77
2023-04-30T12:17:43.007Z,40.28
2023-04-30T12:18:43.005Z,40.77
2023-04-30T12:19:42.976Z,40.12
2023-04-30T12:20:42.964Z,40.61
2023-04-30T12:21:42.950Z,40.28
2023-04-30T12:22:42.960Z,39.80
2023-04-30T12:23:42.936Z,41.09
2023-04-30T12:24:42.927Z,38.67
2023-04-30T12:25:42.925Z,40.28
2023-04-30T12:26:42.908Z,39.16
2023-04-30T12:27:42.938Z,40.28
2023-04-30T12:28:42.901Z,40.61
2023-04-30T12:29:42.903Z,39.16
2023-04-30T12:30:42.885Z,40.93
2023-04-30T12:31:42.951Z,39.80
2023-04-30T12:32:42.914Z,38.35
2023-04-30T12:33:42.875Z,38.83
2023-04-30T12:34:42.849Z,39.32
2023-04-30T12:35:42.907Z,40.28
2023-04-30T12:36:42.885Z,38.99
2023-04-30T12:37:42.858Z,39.16
2023-04-30T12:38:44.221Z,39.16
2023-04-30T12:39:42.819Z,40.77
2023-04-30T12:40:42.850Z,40.12
2023-04-30T12:41:43.358Z,39.32
2023-04-30T12:42:42.900Z,40.12
2023-04-30T12:43:42.901Z,40.28
2023-04-30T12:44:42.837Z,39.48
2023-04-30T12:45:42.816Z,39.80
2023-04-30T12:46:42.836Z,37.87
2023-04-30T12:47:42.812Z,38.51
2023-04-30T12:48:42.799Z,36.25
2023-04-30T12:49:42.764Z,37.06
2023-04-30T12:50:42.744Z,36.58
2023-04-30T12:51:42.767Z,38.67
2023-04-30T12:52:44.033Z,39.80